Aviation Digital Data Service (ADDS)

Output produced by METARs form (1850 UTC 18 June 2019)
found at http://www.aviationweather.gov/metar/data/
 
KLEW 181756Z AUTO 15004KT 10SM BKN090 21/12 A2997 RMK AO2 SLP161 P0001 60001 T02110117 10217 20150 58015
KAUG 181753Z AUTO VRB03KT 10SM OVC065 20/12 A2997 RMK AO2 SLP149 T02000117 10206 20156 58012
KAUG 181726Z 1818/1918 VRB04KT P6SM SCT060 BKN120 
     TEMPO 1818/1822 BKN060 BKN100 
     FM190400 VRB03KT P6SM BKN015 
     FM190700 00000KT 2SM BR OVC004 
     FM191500 18004KT P6SM OVC007
       
KBGR 181753Z 23005KT 10SM SCT070 BKN120 BKN200 24/07 A2994 RMK AO2 SLP137 T02390072 10256 20172 58017
KBGR 181731Z 1818/1918 19007KT P6SM SCT060 
     FM190700 18003KT 3SM BR OVC004 
     FM191400 19005KT P6SM BKN015 
     FM191600 19006KT P6SM BKN030
       
KBHB 181756Z AUTO 21008KT 10SM OVC080 21/11 A2996 RMK AO2 SLP150 T02060106 10233 20167 56009 $
KBHB 181731Z 1818/1918 19008KT P6SM BKN080 
     FM190400 21003KT 3SM BR BKN006 
     FM190600 00000KT 1SM BR OVC002 
     FM191400 18005KT P6SM BKN008 
     FM191600 18006KT P6SM BKN025
       
KCAR 181754Z AUTO 30005KT 10SM SCT075 23/06 A2989 RMK AO2 SLP123 T02330061 10233 20156 58019
KCAR 181731Z 1818/1918 23006KT P6SM SCT070 
     FM191600 19005KT P6SM VCSH BKN040
       
KFVE 181753Z AUTO 25010KT 10SM SCT070 23/07 A2989 RMK AO2 SLP118 T02330067 10239 20144 58018
KFVE 181731Z 1818/1918 25006KT P6SM SCT070 
     FM191600 18005KT P6SM VCSH BKN040
       
KIZG 181754Z AUTO 08004KT 10SM BKN080 22/10 A2996 RMK AO2 SLP147 T02220100 10222 20156 58017
KHUL 181753Z AUTO 22010KT 10SM SCT075 24/08 A2991 RMK AO2 SLP127 T02390078 10239 20156 58017
KHUL 181731Z 1818/1918 24005KT P6SM SCT070 
     FM191700 20007KT P6SM VCSH SCT045
       
KMLT 181753Z AUTO VRB03KT 8SM FEW085 24/08 A2993 RMK AO2 SLP140 T02390078 10244 20161 56018 $
KPWM 181751Z 10005KT 10SM FEW040 SCT100 SCT200 19/11 A2997 RMK AO2 SLP148 T01940106 10206 20178 58010
KPWM 181726Z 1818/1918 09007KT P6SM SCT045 SCT100 
     TEMPO 1818/1822 SCT050 BKN090 
     FM190000 VRB04KT P6SM BKN015 
     FM190300 VRB03KT 4SM BR OVC004 
     FM191500 14006KT P6SM OVC012
       
KPQI 181756Z AUTO VRB03KT 10SM BKN080 23/06 A2991 RMK AO2 SLP151 T02280061 10233 20144 57020
KPQI 181731Z 1818/1918 23006KT P6SM SCT070 
     FM191600 19005KT P6SM VCSH BKN045
       
KRKD 181756Z AUTO 18005KT 10SM OVC080 18/11 A2998 RMK AO2 SLP150 6//// T01830106 10194 20161 58007 $
KRKD 181726Z 1818/1918 19005KT P6SM SCT070 BKN120 
     TEMPO 1818/1822 BKN060 BKN100 
     FM190000 00000KT 5SM BR BKN025 
     FM190200 00000KT 2SM BR OVC004 
     FM190600 00000KT 1/2SM FG OVC002 
     FM191400 16006KT P6SM OVC007
       
KSFM 181756Z AUTO 06007KT 10SM FEW043 22/11 A2996 RMK AO2 SLP149 6//// T02170111 10228 20178 56014 PNO $
KWVL 181756Z AUTO 21004KT 10SM FEW080 21/11 A2994 RMK AO2 SLP165 T02110111 10228 20150 56013
KIWI 181753Z AUTO 13004KT 10SM FEW065 OVC095 22/10 A2997 RMK AO2 SLP150 T02170100 10217 20167 58011